Time,TemperatureF,DewpointF,PressureIn,WindDirection,WindDirectionDegrees,WindSpeedMPH,WindSpeedGustMPH,Humidity,HourlyPrecipIn,Conditions,Clouds,dailyrainin,SolarRadiationWatts/m^2,SoftwareType,DateUTC
2013-01-21 00:11:00,53.4,50.0,29.45,East,81,5.0,7.0,87,0.00,,,0.03,0,weatherlink.com 1.10,2013-01-20 23:11:00,
2013-01-21 00:26:00,53.6,50.0,29.45,East,88,3.0,6.0,87,0.00,,,0.03,0,weatherlink.com 1.10,2013-01-20 23:26:00,
2013-01-21 00:41:00,53.7,50.0,29.44,ENE,74,2.0,6.0,86,0.00,,,0.03,0,weatherlink.com 1.10,2013-01-20 23:41:00,
2013-01-21 00:56:00,53.8,49.0,29.44,ENE,74,6.0,13.0,85,0.00,,,0.00,0,weatherlink.com 1.10,2013-01-20 23:56:00,
2013-01-21 01:12:00,54.0,49.0,29.43,ENE,76,7.0,10.0,84,0.00,,,0.00,0,weatherlink.com 1.10,2013-01-21 00:12:00,
2013-01-21 02:11:00,53.9,50.0,29.44,ENE,67,5.0,10.0,86,0.00,,,0.00,0,weatherlink.com 1.10,2013-01-21 01:11:00,
2013-01-21 02:56:00,53.1,49.0,29.43,ENE,69,2.0,4.0,86,0.00,,,0.00,0,weatherlink.com 1.10,2013-01-21 01:56:00,
2013-01-21 03:11:00,53.1,49.0,29.43,ESE,114,1.0,4.0,85,0.00,,,0.00,0,weatherlink.com 1.10,2013-01-21 02:11:00,
2013-01-21 03:27:00,53.2,49.0,29.43,East,80,1.0,3.0,85,0.00,,,0.00,0,weatherlink.com 1.10,2013-01-21 02:27:00,
2013-01-21 03:41:00,53.2,49.0,29.42,ENE,69,1.0,3.0,84,0.00,,,0.00,0,weatherlink.com 1.10,2013-01-21 02:41:00,
2013-01-21 04:11:00,53.3,48.0,29.41,ENE,75,4.0,5.0,83,0.00,,,0.00,0,weatherlink.com 1.10,2013-01-21 03:11:00,
2013-01-21 04:27:00,53.7,48.0,29.41,East,80,2.0,5.0,82,0.00,,,0.00,0,weatherlink.com 1.10,2013-01-21 03:27:00,
2013-01-21 04:41:00,53.6,49.0,29.41,ENE,74,3.0,6.0,83,0.00,,,0.00,0,weatherlink.com 1.10,2013-01-21 03:41:00,
2013-01-21 04:57:00,52.9,49.0,29.41,ENE,66,3.0,5.0,86,0.00,,,0.00,0,weatherlink.com 1.10,2013-01-21 03:57:00,
2013-01-21 05:12:00,52.6,49.0,29.40,ESE,105,2.0,4.0,86,0.00,,,0.00,0,weatherlink.com 1.10,2013-01-21 04:12:00,
2013-01-21 05:27:00,52.4,48.0,29.40,East,89,1.0,3.0,86,0.00,,,0.00,0,weatherlink.com 1.10,2013-01-21 04:27:00,
2013-01-21 05:42:00,52.4,49.0,29.39,East,80,0.0,3.0,87,0.00,,,0.00,0,weatherlink.com 1.10,2013-01-21 04:42:00,
2013-01-21 06:12:00,52.1,49.0,29.40,NNW,327,0.0,2.0,88,0.00,,,0.00,0,weatherlink.com 1.10,2013-01-21 05:12:00,
2013-01-21 06:27:00,52.2,49.0,29.40,NW,325,0.0,1.0,90,0.00,,,0.00,0,weatherlink.com 1.10,2013-01-21 05:27:00,
2013-01-21 06:57:00,51.6,49.0,29.41,NW,325,1.0,2.0,92,0.00,,,0.00,0,weatherlink.com 1.10,2013-01-21 05:57:00,
2013-01-21 07:12:00,51.1,50.0,29.41,East,95,1.0,2.0,94,0.00,,,0.00,0,weatherlink.com 1.10,2013-01-21 06:12:00,
2013-01-21 07:27:00,51.1,50.0,29.41,East,98,0.0,2.0,95,0.00,,,0.00,0,weatherlink.com 1.10,2013-01-21 06:27:00,
2013-01-21 07:42:00,51.0,50.0,29.41,East,98,0.0,1.0,95,0.00,,,0.00,0,weatherlink.com 1.10,2013-01-21 06:42:00,
2013-01-21 07:57:00,50.9,50.0,29.41,East,98,0.0,0.0,95,0.00,,,0.00,0,weatherlink.com 1.10,2013-01-21 06:57:00,
2013-01-21 08:12:00,50.8,50.0,29.41,East,98,1.0,1.0,96,0.00,,,0.00,7,weatherlink.com 1.10,2013-01-21 07:12:00,
2013-01-21 08:27:00,50.5,49.0,29.41,East,98,0.0,1.0,95,0.00,,,0.00,12,weatherlink.com 1.10,2013-01-21 07:27:00,
2013-01-21 08:42:00,50.3,49.0,29.41,East,98,0.0,1.0,96,0.00,,,0.00,11,weatherlink.com 1.10,2013-01-21 07:42:00,
2013-01-21 08:57:00,50.3,49.0,29.42,East,98,1.0,2.0,96,0.00,,,0.00,12,weatherlink.com 1.10,2013-01-21 07:57:00,
2013-01-21 09:12:00,50.5,49.0,29.42,East,98,0.0,1.0,96,0.00,,,0.00,26,weatherlink.com 1.10,2013-01-21 08:12:00,
2013-01-21 09:27:00,50.8,50.0,29.42,East,98,0.0,0.0,97,0.00,,,0.00,56,weatherlink.com 1.10,2013-01-21 08:27:00,
2013-01-21 09:42:00,51.6,51.0,29.42,East,98,0.0,2.0,97,0.00,,,0.00,134,weatherlink.com 1.10,2013-01-21 08:42:00,
2013-01-21 10:12:00,52.7,51.0,29.42,East,92,1.0,1.0,94,0.00,,,0.00,104,weatherlink.com 1.10,2013-01-21 09:12:00,
2013-01-21 10:27:00,53.4,51.0,29.42,East,92,0.0,3.0,92,0.00,,,0.00,207,weatherlink.com 1.10,2013-01-21 09:27:00,
2013-01-21 10:42:00,54.5,52.0,29.43,East,98,0.0,1.0,91,0.00,,,0.00,67,weatherlink.com 1.10,2013-01-21 09:42:00,
2013-01-21 10:57:00,55.2,51.0,29.44,East,98,0.0,0.0,87,0.00,,,0.00,113,weatherlink.com 1.10,2013-01-21 09:57:00,
2013-01-21 11:12:00,52.1,45.0,29.46,WNW,292,0.0,7.0,77,0.00,,,0.00,14,weatherlink.com 1.10,2013-01-21 10:12:00,
2013-01-21 11:27:00,49.6,45.0,29.46,NE,34,1.0,3.0,83,0.00,,,0.00,16,weatherlink.com 1.10,2013-01-21 10:27:00,
2013-01-21 11:42:00,48.2,44.0,29.46,North,2,2.0,4.0,86,0.00,,,0.00,21,weatherlink.com 1.10,2013-01-21 10:42:00,
2013-01-21 11:58:00,47.6,44.0,29.45,NW,325,0.0,3.0,86,0.00,,,0.00,40,weatherlink.com 1.10,2013-01-21 10:58:00,
2013-01-21 12:12:00,47.7,44.0,29.44,NW,306,0.0,2.0,86,0.00,,,0.00,234,weatherlink.com 1.10,2013-01-21 11:12:00,
2013-01-21 12:27:00,50.1,45.0,29.44,WNW,285,0.0,2.0,82,0.00,,,0.00,531,weatherlink.com 1.10,2013-01-21 11:27:00,
2013-01-21 12:42:00,53.5,45.0,29.44,WNW,285,1.0,2.0,74,0.00,,,0.00,534,weatherlink.com 1.10,2013-01-21 11:42:00,
2013-01-21 12:57:00,55.1,45.0,29.45,WNW,285,0.0,1.0,70,0.00,,,0.00,499,weatherlink.com 1.10,2013-01-21 11:57:00,
2013-01-21 13:12:00,56.3,45.0,29.45,NW,317,0.0,2.0,65,0.00,,,0.00,167,weatherlink.com 1.10,2013-01-21 12:12:00,
2013-01-21 13:27:00,56.0,45.0,29.45,East,83,1.0,2.0,67,0.00,,,0.00,167,weatherlink.com 1.10,2013-01-21 12:27:00,
2013-01-21 13:42:00,55.3,46.0,29.45,ESE,110,0.0,1.0,70,0.00,,,0.00,599,weatherlink.com 1.10,2013-01-21 12:42:00,
2013-01-21 13:57:00,55.0,45.0,29.45,ESE,110,0.0,1.0,68,0.00,,,0.00,146,weatherlink.com 1.10,2013-01-21 12:57:00,
2013-01-21 14:12:00,53.7,46.0,29.46,ENE,60,0.0,2.0,74,0.00,,,0.00,107,weatherlink.com 1.10,2013-01-21 13:12:00,
2013-01-21 14:27:00,52.4,46.0,29.46,ENE,59,0.0,5.0,78,0.00,,,0.00,127,weatherlink.com 1.10,2013-01-21 13:27:00,
2013-01-21 14:42:00,52.4,46.0,29.46,ENE,59,1.0,2.0,78,0.00,,,0.00,81,weatherlink.com 1.10,2013-01-21 13:42:00,
2013-01-21 14:58:00,52.3,46.0,29.47,ENE,59,4.0,6.0,79,0.00,,,0.00,111,weatherlink.com 1.10,2013-01-21 13:58:00,
2013-01-21 15:13:00,51.9,46.0,29.47,ENE,58,0.0,6.0,79,0.00,,,0.00,294,weatherlink.com 1.10,2013-01-21 14:13:00,
2013-01-21 15:28:00,52.3,45.0,29.47,ENE,58,0.0,3.0,77,0.00,,,0.00,51,weatherlink.com 1.10,2013-01-21 14:28:00,
2013-01-21 15:43:00,51.9,45.0,29.48,NE,56,0.0,4.0,76,0.00,,,0.00,26,weatherlink.com 1.10,2013-01-21 14:43:00,
2013-01-21 15:58:00,51.4,45.0,29.48,ENE,64,0.0,4.0,78,0.00,,,0.00,21,weatherlink.com 1.10,2013-01-21 14:58:00,
2013-01-21 16:13:00,51.1,44.0,29.48,ENE,64,0.0,1.0,78,0.00,,,0.00,16,weatherlink.com 1.10,2013-01-21 15:13:00,
2013-01-21 16:28:00,50.9,44.0,29.48,ENE,64,2.0,3.0,78,0.00,,,0.00,12,weatherlink.com 1.10,2013-01-21 15:28:00,
2013-01-21 16:43:00,50.6,44.0,29.48,ENE,64,0.0,3.0,78,0.00,,,0.00,7,weatherlink.com 1.10,2013-01-21 15:43:00,
2013-01-21 16:58:00,50.2,44.0,29.49,ENE,64,0.0,2.0,79,0.00,,,0.00,0,weatherlink.com 1.10,2013-01-21 15:58:00,
2013-01-21 17:13:00,49.7,44.0,29.49,ENE,64,1.0,2.0,80,0.00,,,0.00,0,weatherlink.com 1.10,2013-01-21 16:13:00,
2013-01-21 17:28:00,49.2,44.0,29.49,ENE,64,1.0,2.0,82,0.00,,,0.00,0,weatherlink.com 1.10,2013-01-21 16:28:00,
2013-01-21 17:43:00,48.7,44.0,29.49,ENE,64,1.0,2.0,83,0.00,,,0.00,0,weatherlink.com 1.10,2013-01-21 16:43:00,
2013-01-21 17:58:00,48.3,44.0,29.50,ENE,64,0.0,1.0,85,0.00,,,0.00,0,weatherlink.com 1.10,2013-01-21 16:58:00,
2013-01-21 18:13:00,47.4,43.0,29.50,ENE,64,0.0,2.0,86,0.00,,,0.00,0,weatherlink.com 1.10,2013-01-21 17:13:00,
2013-01-21 18:28:00,47.1,43.0,29.51,ENE,65,2.0,2.0,86,0.00,,,0.00,0,weatherlink.com 1.10,2013-01-21 17:28:00,
2013-01-21 18:43:00,46.9,42.0,29.51,ENE,65,0.0,2.0,84,0.00,,,0.00,0,weatherlink.com 1.10,2013-01-21 17:43:00,
2013-01-21 18:58:00,46.9,42.0,29.51,ENE,64,1.0,2.0,82,0.00,,,0.00,0,weatherlink.com 1.10,2013-01-21 17:58:00,
2013-01-21 19:13:00,47.1,41.0,29.52,ENE,71,2.0,3.0,80,0.00,,,0.00,0,weatherlink.com 1.10,2013-01-21 18:13:00,
2013-01-21 19:28:00,47.1,41.0,29.53,ENE,77,2.0,3.0,80,0.00,,,0.00,0,weatherlink.com 1.10,2013-01-21 18:28:00,
2013-01-21 19:43:00,47.3,41.0,29.53,East,92,2.0,3.0,80,0.00,,,0.00,0,weatherlink.com 1.10,2013-01-21 18:43:00,
2013-01-21 19:58:00,47.6,42.0,29.53,East,94,1.0,4.0,80,0.00,,,0.00,0,weatherlink.com 1.10,2013-01-21 18:58:00,
2013-01-21 20:13:00,48.1,42.0,29.53,East,90,3.0,4.0,80,0.00,,,0.00,0,weatherlink.com 1.10,2013-01-21 19:13:00,
2013-01-21 20:28:00,49.1,43.0,29.54,East,83,3.0,5.0,79,0.00,,,0.00,0,weatherlink.com 1.10,2013-01-21 19:28:00,
2013-01-21 20:43:00,49.6,43.0,29.54,ENE,63,4.0,5.0,77,0.00,,,0.00,0,weatherlink.com 1.10,2013-01-21 19:43:00,
2013-01-21 20:58:00,50.0,43.0,29.54,ENE,74,4.0,5.0,77,0.00,,,0.00,0,weatherlink.com 1.10,2013-01-21 19:58:00,
2013-01-21 21:13:00,50.0,44.0,29.54,East,86,3.0,6.0,80,0.00,,,0.00,0,weatherlink.com 1.10,2013-01-21 20:13:00,
2013-01-21 21:28:00,49.4,45.0,29.54,ENE,78,6.0,7.0,86,0.00,,,0.00,0,weatherlink.com 1.10,2013-01-21 20:28:00,
2013-01-21 21:43:00,48.9,46.0,29.54,East,98,3.0,6.0,89,0.00,,,0.00,0,weatherlink.com 1.10,2013-01-21 20:43:00,
2013-01-21 21:58:00,49.1,46.0,29.54,ENE,73,2.0,5.0,89,0.00,,,0.00,0,weatherlink.com 1.10,2013-01-21 20:58:00,
2013-01-21 22:13:00,49.3,46.0,29.54,ENE,75,1.0,3.0,89,0.00,,,0.00,0,weatherlink.com 1.10,2013-01-21 21:13:00,
2013-01-21 22:28:00,49.6,46.0,29.54,ENE,75,1.0,3.0,88,0.00,,,0.00,0,weatherlink.com 1.10,2013-01-21 21:28:00,
2013-01-21 22:43:00,49.9,47.0,29.55,East,83,1.0,1.0,89,0.00,,,0.00,0,weatherlink.com 1.10,2013-01-21 21:43:00,
2013-01-21 22:58:00,50.5,47.0,29.55,East,87,0.0,2.0,87,0.00,,,0.00,0,weatherlink.com 1.10,2013-01-21 21:58:00,
2013-01-21 23:13:00,51.1,47.0,29.55,SE,125,0.0,2.0,86,0.00,,,0.00,0,weatherlink.com 1.10,2013-01-21 22:13:00,
2013-01-21 23:28:00,51.4,47.0,29.55,ESE,123,1.0,3.0,85,0.00,,,0.00,0,weatherlink.com 1.10,2013-01-21 22:28:00,
2013-01-21 23:43:00,51.6,47.0,29.55,East,94,0.0,2.0,84,0.00,,,0.00,0,weatherlink.com 1.10,2013-01-21 22:43:00,
2013-01-21 23:58:00,51.7,47.0,29.55,East,85,1.0,2.0,83,0.00,,,0.00,0,weatherlink.com 1.10,2013-01-21 22:58:00,